Terminal Aerodrome Forecast
Issued by NWS

Home | Current Version | Previous Version | Text Only | Print | Product List | Glossary On
Versions: 1 2 3 4 5 6 7 8 9 10 11 12 13 14 15 16 17 18 19 20 21 22 23 24 25
000
FTUS43 KDLH 220500
TAFHYR
TAF
KHYR 220536Z 2206/2306 34004KT P6SM SCT040
      TEMPO 2207/2211 BKN040
     FM221600 35007KT P6SM FEW035
     FM230100 00000KT P6SM FEW200=

USA.gov is the U.S. government's official web portal to all federal, state and local government web resources and services.